sensor_id;sensor_type;location;lat;lon;timestamp;temperature;humidity
52743;DHT22;55583;53.012;6.556;2022-11-15T00:01:51;7.00;99.90
52743;DHT22;55583;53.012;6.556;2022-11-15T00:04:17;7.40;99.90
52743;DHT22;55583;53.012;6.556;2022-11-15T00:06:42;6.90;99.90
52743;DHT22;55583;53.012;6.556;2022-11-15T00:09:08;6.90;99.90
52743;DHT22;55583;53.012;6.556;2022-11-15T00:11:34;6.80;99.90
52743;DHT22;55583;53.012;6.556;2022-11-15T00:13:59;6.80;99.90
52743;DHT22;55583;53.012;6.556;2022-11-15T00:16:27;6.70;99.90
52743;DHT22;55583;53.012;6.556;2022-11-15T00:18:56;6.70;99.90
52743;DHT22;55583;53.012;6.556;2022-11-15T00:21:22;6.70;99.90
52743;DHT22;55583;53.012;6.556;2022-11-15T00:23:48;6.70;99.90
52743;DHT22;55583;53.012;6.556;2022-11-15T00:26:14;6.80;99.90
52743;DHT22;55583;53.012;6.556;2022-11-15T00:28:41;6.80;99.90
52743;DHT22;55583;53.012;6.556;2022-11-15T00:31:10;6.90;99.90
52743;DHT22;55583;53.012;6.556;2022-11-15T00:33:36;7.00;99.90
52743;DHT22;55583;53.012;6.556;2022-11-15T00:36:04;7.00;99.90
52743;DHT22;55583;53.012;6.556;2022-11-15T00:38:34;7.10;99.90
52743;DHT22;55583;53.012;6.556;2022-11-15T00:41:01;7.20;99.90
52743;DHT22;55583;53.012;6.556;2022-11-15T00:43:26;8.40;99.90
52743;DHT22;55583;53.012;6.556;2022-11-15T00:45:52;7.60;99.90
52743;DHT22;55583;53.012;6.556;2022-11-15T00:48:21;7.30;99.90
52743;DHT22;55583;53.012;6.556;2022-11-15T00:50:48;7.90;99.90
52743;DHT22;55583;53.012;6.556;2022-11-15T00:53:14;7.40;99.90
52743;DHT22;55583;53.012;6.556;2022-11-15T00:55:40;8.50;99.90
52743;DHT22;55583;53.012;6.556;2022-11-15T00:58:05;8.60;99.90
52743;DHT22;55583;53.012;6.556;2022-11-15T01:00:31;9.00;99.90
52743;DHT22;55583;53.012;6.556;2022-11-15T01:02:57;7.50;99.90
52743;DHT22;55583;53.012;6.556;2022-11-15T01:05:22;7.50;99.90
52743;DHT22;55583;53.012;6.556;2022-11-15T01:07:52;7.50;99.90
52743;DHT22;55583;53.012;6.556;2022-11-15T01:10:18;7.50;99.90
52743;DHT22;55583;53.012;6.556;2022-11-15T01:12:43;7.60;99.90
52743;DHT22;55583;53.012;6.556;2022-11-15T01:15:09;7.50;99.90
52743;DHT22;55583;53.012;6.556;2022-11-15T01:17:35;7.50;99.90
52743;DHT22;55583;53.012;6.556;2022-11-15T01:20:01;7.50;99.90
52743;DHT22;55583;53.012;6.556;2022-11-15T01:22:26;7.50;99.90
52743;DHT22;55583;53.012;6.556;2022-11-15T01:24:52;7.50;99.90
52743;DHT22;55583;53.012;6.556;2022-11-15T01:27:17;8.10;99.90
52743;DHT22;55583;53.012;6.556;2022-11-15T01:29:43;8.70;99.90
52743;DHT22;55583;53.012;6.556;2022-11-15T01:32:09;7.60;99.90
52743;DHT22;55583;53.012;6.556;2022-11-15T01:34:34;7.60;99.90
52743;DHT22;55583;53.012;6.556;2022-11-15T01:37:02;8.50;99.90
52743;DHT22;55583;53.012;6.556;2022-11-15T01:39:28;7.60;99.90
52743;DHT22;55583;53.012;6.556;2022-11-15T01:41:54;7.60;99.90
52743;DHT22;55583;53.012;6.556;2022-11-15T01:47:28;7.80;99.90
52743;DHT22;55583;53.012;6.556;2022-11-15T01:50:06;7.60;99.90
52743;DHT22;55583;53.012;6.556;2022-11-15T01:52:34;7.50;99.90
52743;DHT22;55583;53.012;6.556;2022-11-15T01:55:21;7.50;99.90
52743;DHT22;55583;53.012;6.556;2022-11-15T01:57:50;7.60;99.90
52743;DHT22;55583;53.012;6.556;2022-11-15T02:00:18;7.60;99.90
52743;DHT22;55583;53.012;6.556;2022-11-15T02:02:44;7.60;99.90
52743;DHT22;55583;53.012;6.556;2022-11-15T02:05:10;7.60;99.90
52743;DHT22;55583;53.012;6.556;2022-11-15T02:07:36;7.50;99.90
52743;DHT22;55583;53.012;6.556;2022-11-15T02:10:10;7.60;99.90
52743;DHT22;55583;53.012;6.556;2022-11-15T02:12:36;7.60;99.90
52743;DHT22;55583;53.012;6.556;2022-11-15T02:15:04;7.60;99.90
52743;DHT22;55583;53.012;6.556;2022-11-15T02:17:59;7.60;99.90
52743;DHT22;55583;53.012;6.556;2022-11-15T02:42:13;7.60;99.90
52743;DHT22;55583;53.012;6.556;2022-11-15T02:45:03;7.60;99.90
52743;DHT22;55583;53.012;6.556;2022-11-15T02:47:32;7.60;99.90
52743;DHT22;55583;53.012;6.556;2022-11-15T02:50:08;7.60;99.90
52743;DHT22;55583;53.012;6.556;2022-11-15T02:52:34;7.70;99.90
52743;DHT22;55583;53.012;6.556;2022-11-15T02:55:00;7.70;99.90
52743;DHT22;55583;53.012;6.556;2022-11-15T03:00:18;7.70;99.90
52743;DHT22;55583;53.012;6.556;2022-11-15T03:08:31;7.70;99.90
52743;DHT22;55583;53.012;6.556;2022-11-15T03:11:11;7.80;99.90
52743;DHT22;55583;53.012;6.556;2022-11-15T03:13:57;7.80;99.90
52743;DHT22;55583;53.012;6.556;2022-11-15T03:16:34;7.80;99.90
52743;DHT22;55583;53.012;6.556;2022-11-15T03:19:32;7.80;99.90
52743;DHT22;55583;53.012;6.556;2022-11-15T03:22:01;7.80;99.90
52743;DHT22;55583;53.012;6.556;2022-11-15T03:24:30;7.80;99.90
52743;DHT22;55583;53.012;6.556;2022-11-15T03:26:59;8.00;99.90
52743;DHT22;55583;53.012;6.556;2022-11-15T03:29:31;7.80;99.90
52743;DHT22;55583;53.012;6.556;2022-11-15T03:32:01;7.90;99.90
52743;DHT22;55583;53.012;6.556;2022-11-15T03:37:02;7.90;99.90
52743;DHT22;55583;53.012;6.556;2022-11-15T03:39:29;9.30;99.90
52743;DHT22;55583;53.012;6.556;2022-11-15T03:42:07;7.90;99.90
52743;DHT22;55583;53.012;6.556;2022-11-15T03:45:06;8.00;99.90
52743;DHT22;55583;53.012;6.556;2022-11-15T03:47:44;8.00;99.90
52743;DHT22;55583;53.012;6.556;2022-11-15T03:50:15;8.00;99.90
52743;DHT22;55583;53.012;6.556;2022-11-15T03:52:43;8.00;99.90
52743;DHT22;55583;53.012;6.556;2022-11-15T03:55:13;8.00;99.90
52743;DHT22;55583;53.012;6.556;2022-11-15T03:57:38;8.00;99.90
52743;DHT22;55583;53.012;6.556;2022-11-15T04:00:05;8.00;99.90
52743;DHT22;55583;53.012;6.556;2022-11-15T04:02:31;8.00;99.90
52743;DHT22;55583;53.012;6.556;2022-11-15T04:04:56;8.00;99.90
52743;DHT22;55583;53.012;6.556;2022-11-15T04:07:22;8.40;99.90
52743;DHT22;55583;53.012;6.556;2022-11-15T04:09:47;9.50;99.90
52743;DHT22;55583;53.012;6.556;2022-11-15T04:12:33;8.80;99.90
52743;DHT22;55583;53.012;6.556;2022-11-15T04:15:05;8.00;99.90
52743;DHT22;55583;53.012;6.556;2022-11-15T04:20:15;8.00;99.90
52743;DHT22;55583;53.012;6.556;2022-11-15T04:23:01;8.00;99.90
52743;DHT22;55583;53.012;6.556;2022-11-15T04:25:49;8.00;99.90
52743;DHT22;55583;53.012;6.556;2022-11-15T04:28:16;8.10;99.90
52743;DHT22;55583;53.012;6.556;2022-11-15T04:30:41;8.10;99.90
52743;DHT22;55583;53.012;6.556;2022-11-15T04:33:07;8.10;99.90
52743;DHT22;55583;53.012;6.556;2022-11-15T04:35:33;8.10;99.90
52743;DHT22;55583;53.012;6.556;2022-11-15T04:37:59;8.10;99.90
52743;DHT22;55583;53.012;6.556;2022-11-15T04:40:25;9.40;99.90
52743;DHT22;55583;53.012;6.556;2022-11-15T04:42:50;8.20;99.90
52743;DHT22;55583;53.012;6.556;2022-11-15T04:45:16;8.20;99.90
52743;DHT22;55583;53.012;6.556;2022-11-15T04:47:44;8.20;99.90
52743;DHT22;55583;53.012;6.556;2022-11-15T04:50:11;8.20;99.90
52743;DHT22;55583;53.012;6.556;2022-11-15T04:52:43;8.30;99.90
52743;DHT22;55583;53.012;6.556;2022-11-15T04:55:12;8.30;99.90
52743;DHT22;55583;53.012;6.556;2022-11-15T04:57:38;8.30;99.90
52743;DHT22;55583;53.012;6.556;2022-11-15T05:00:06;8.40;99.90
52743;DHT22;55583;53.012;6.556;2022-11-15T05:02:31;8.40;99.90
52743;DHT22;55583;53.012;6.556;2022-11-15T05:05:16;8.40;99.90
52743;DHT22;55583;53.012;6.556;2022-11-15T05:07:42;8.40;99.90
52743;DHT22;55583;53.012;6.556;2022-11-15T05:10:08;8.40;99.90
52743;DHT22;55583;53.012;6.556;2022-11-15T05:12:33;8.50;99.90
52743;DHT22;55583;53.012;6.556;2022-11-15T05:14:59;8.50;99.90
52743;DHT22;55583;53.012;6.556;2022-11-15T05:17:24;8.60;99.90
52743;DHT22;55583;53.012;6.556;2022-11-15T05:19:50;8.60;99.90
52743;DHT22;55583;53.012;6.556;2022-11-15T05:22:18;8.60;99.90
52743;DHT22;55583;53.012;6.556;2022-11-15T05:24:43;9.10;99.90
52743;DHT22;55583;53.012;6.556;2022-11-15T05:27:12;8.70;99.90
52743;DHT22;55583;53.012;6.556;2022-11-15T05:29:38;8.70;99.90
52743;DHT22;55583;53.012;6.556;2022-11-15T05:32:05;8.70;99.90
52743;DHT22;55583;53.012;6.556;2022-11-15T05:34:31;8.70;99.90
52743;DHT22;55583;53.012;6.556;2022-11-15T05:36:57;9.10;99.90
52743;DHT22;55583;53.012;6.556;2022-11-15T05:39:23;8.80;99.90
52743;DHT22;55583;53.012;6.556;2022-11-15T05:42:05;8.80;99.90
52743;DHT22;55583;53.012;6.556;2022-11-15T05:44:34;8.90;99.90
52743;DHT22;55583;53.012;6.556;2022-11-15T05:47:03;8.90;99.90
52743;DHT22;55583;53.012;6.556;2022-11-15T05:49:33;8.90;99.90
52743;DHT22;55583;53.012;6.556;2022-11-15T05:52:04;9.00;99.90
52743;DHT22;55583;53.012;6.556;2022-11-15T05:54:31;9.00;99.90
52743;DHT22;55583;53.012;6.556;2022-11-15T05:56:58;9.00;99.90
52743;DHT22;55583;53.012;6.556;2022-11-15T05:59:24;9.10;99.90
52743;DHT22;55583;53.012;6.556;2022-11-15T06:01:49;9.10;99.90
52743;DHT22;55583;53.012;6.556;2022-11-15T06:04:15;10.10;99.90
52743;DHT22;55583;53.012;6.556;2022-11-15T06:06:41;9.20;99.90
52743;DHT22;55583;53.012;6.556;2022-11-15T06:09:06;9.30;99.90
52743;DHT22;55583;53.012;6.556;2022-11-15T06:11:32;9.30;99.90
52743;DHT22;55583;53.012;6.556;2022-11-15T06:13:57;9.30;99.90
52743;DHT22;55583;53.012;6.556;2022-11-15T06:16:23;9.30;99.90
52743;DHT22;55583;53.012;6.556;2022-11-15T06:18:49;9.80;99.90
52743;DHT22;55583;53.012;6.556;2022-11-15T06:21:14;9.40;99.90
52743;DHT22;55583;53.012;6.556;2022-11-15T06:23:40;9.40;99.90
52743;DHT22;55583;53.012;6.556;2022-11-15T06:26:05;10.20;99.90
52743;DHT22;55583;53.012;6.556;2022-11-15T06:28:32;9.90;99.90
52743;DHT22;55583;53.012;6.556;2022-11-15T06:31:06;9.60;99.90
52743;DHT22;55583;53.012;6.556;2022-11-15T06:33:32;9.50;99.90
52743;DHT22;55583;53.012;6.556;2022-11-15T06:36:03;9.50;99.90
52743;DHT22;55583;53.012;6.556;2022-11-15T06:38:29;9.60;99.90
52743;DHT22;55583;53.012;6.556;2022-11-15T06:40:55;9.60;99.90
52743;DHT22;55583;53.012;6.556;2022-11-15T06:43:26;9.60;99.90
52743;DHT22;55583;53.012;6.556;2022-11-15T06:45:51;11.00;99.90
52743;DHT22;55583;53.012;6.556;2022-11-15T06:48:17;9.60;99.90
52743;DHT22;55583;53.012;6.556;2022-11-15T06:50:42;9.70;99.90
52743;DHT22;55583;53.012;6.556;2022-11-15T06:53:08;10.10;99.90
52743;DHT22;55583;53.012;6.556;2022-11-15T06:55:33;9.70;99.90
52743;DHT22;55583;53.012;6.556;2022-11-15T06:58:02;9.70;99.90
52743;DHT22;55583;53.012;6.556;2022-11-15T07:00:27;9.80;99.90
52743;DHT22;55583;53.012;6.556;2022-11-15T07:02:53;9.80;99.90
52743;DHT22;55583;53.012;6.556;2022-11-15T07:05:18;9.80;99.90
52743;DHT22;55583;53.012;6.556;2022-11-15T07:07:51;10.40;99.90
52743;DHT22;55583;53.012;6.556;2022-11-15T07:10:20;9.80;99.90
52743;DHT22;55583;53.012;6.556;2022-11-15T07:12:49;9.90;99.90
52743;DHT22;55583;53.012;6.556;2022-11-15T07:15:15;9.90;99.90
52743;DHT22;55583;53.012;6.556;2022-11-15T07:17:41;10.80;99.90
52743;DHT22;55583;53.012;6.556;2022-11-15T07:20:07;10.00;99.90
52743;DHT22;55583;53.012;6.556;2022-11-15T07:22:33;10.00;99.90
52743;DHT22;55583;53.012;6.556;2022-11-15T07:24:58;10.00;99.90
52743;DHT22;55583;53.012;6.556;2022-11-15T07:27:24;10.00;99.90
52743;DHT22;55583;53.012;6.556;2022-11-15T07:29:50;10.30;99.90
52743;DHT22;55583;53.012;6.556;2022-11-15T07:32:16;10.10;99.90
52743;DHT22;55583;53.012;6.556;2022-11-15T07:34:42;10.50;99.90
52743;DHT22;55583;53.012;6.556;2022-11-15T07:37:08;10.90;99.90
52743;DHT22;55583;53.012;6.556;2022-11-15T07:39:33;10.10;99.90
52743;DHT22;55583;53.012;6.556;2022-11-15T07:41:59;10.10;99.90
52743;DHT22;55583;53.012;6.556;2022-11-15T07:44:44;10.20;99.90
52743;DHT22;55583;53.012;6.556;2022-11-15T07:47:09;10.60;99.90
52743;DHT22;55583;53.012;6.556;2022-11-15T07:49:35;10.20;99.90
52743;DHT22;55583;53.012;6.556;2022-11-15T07:52:01;11.00;99.90
52743;DHT22;55583;53.012;6.556;2022-11-15T07:54:26;11.40;99.90
52743;DHT22;55583;53.012;6.556;2022-11-15T07:56:52;10.30;99.90
52743;DHT22;55583;53.012;6.556;2022-11-15T07:59:17;10.30;99.90
52743;DHT22;55583;53.012;6.556;2022-11-15T08:01:44;10.50;99.90
52743;DHT22;55583;53.012;6.556;2022-11-15T08:04:11;10.50;99.90
52743;DHT22;55583;53.012;6.556;2022-11-15T08:06:37;11.10;99.90
52743;DHT22;55583;53.012;6.556;2022-11-15T08:09:02;10.70;99.90
52743;DHT22;55583;53.012;6.556;2022-11-15T08:11:28;10.50;99.90
52743;DHT22;55583;53.012;6.556;2022-11-15T08:13:54;10.50;99.90
52743;DHT22;55583;53.012;6.556;2022-11-15T08:16:19;10.50;99.90
52743;DHT22;55583;53.012;6.556;2022-11-15T08:18:45;10.60;99.90
52743;DHT22;55583;53.012;6.556;2022-11-15T08:21:14;10.60;99.90
52743;DHT22;55583;53.012;6.556;2022-11-15T08:23:43;10.60;99.90
52743;DHT22;55583;53.012;6.556;2022-11-15T08:26:09;10.70;99.90
52743;DHT22;55583;53.012;6.556;2022-11-15T08:28:35;10.70;99.90
52743;DHT22;55583;53.012;6.556;2022-11-15T08:31:02;10.80;99.90
52743;DHT22;55583;53.012;6.556;2022-11-15T08:33:28;10.80;99.90
52743;DHT22;55583;53.012;6.556;2022-11-15T08:35:56;10.50;99.90
52743;DHT22;55583;53.012;6.556;2022-11-15T08:38:22;10.80;99.90
52743;DHT22;55583;53.012;6.556;2022-11-15T08:40:50;10.80;99.90
52743;DHT22;55583;53.012;6.556;2022-11-15T08:43:16;11.60;99.90
52743;DHT22;55583;53.012;6.556;2022-11-15T08:45:41;10.90;99.90
52743;DHT22;55583;53.012;6.556;2022-11-15T08:48:07;11.00;99.90
52743;DHT22;55583;53.012;6.556;2022-11-15T08:50:33;11.10;99.90
52743;DHT22;55583;53.012;6.556;2022-11-15T08:53:07;11.60;99.90
52743;DHT22;55583;53.012;6.556;2022-11-15T08:55:36;11.20;99.90
52743;DHT22;55583;53.012;6.556;2022-11-15T08:58:03;12.20;99.90
52743;DHT22;55583;53.012;6.556;2022-11-15T09:00:29;12.00;99.90
52743;DHT22;55583;53.012;6.556;2022-11-15T09:02:58;11.30;99.90
52743;DHT22;55583;53.012;6.556;2022-11-15T09:05:25;11.30;99.90
52743;DHT22;55583;53.012;6.556;2022-11-15T09:07:54;11.30;99.90
52743;DHT22;55583;53.012;6.556;2022-11-15T09:10:20;11.40;99.90
52743;DHT22;55583;53.012;6.556;2022-11-15T09:12:46;11.90;99.90
52743;DHT22;55583;53.012;6.556;2022-11-15T09:15:14;12.30;99.90
52743;DHT22;55583;53.012;6.556;2022-11-15T09:17:40;11.40;99.90
52743;DHT22;55583;53.012;6.556;2022-11-15T09:20:06;12.00;99.90
52743;DHT22;55583;53.012;6.556;2022-11-15T09:22:32;11.50;99.90
52743;DHT22;55583;53.012;6.556;2022-11-15T09:24:58;11.80;99.90
52743;DHT22;55583;53.012;6.556;2022-11-15T09:27:28;11.50;99.90
52743;DHT22;55583;53.012;6.556;2022-11-15T09:29:53;11.60;99.90
52743;DHT22;55583;53.012;6.556;2022-11-15T09:32:19;11.60;99.90
52743;DHT22;55583;53.012;6.556;2022-11-15T09:34:45;11.70;99.90
52743;DHT22;55583;53.012;6.556;2022-11-15T09:37:11;11.70;99.90
52743;DHT22;55583;53.012;6.556;2022-11-15T09:39:37;11.70;99.90
52743;DHT22;55583;53.012;6.556;2022-11-15T09:45:19;12.40;99.90
52743;DHT22;55583;53.012;6.556;2022-11-15T09:50:50;11.80;99.90
52743;DHT22;55583;53.012;6.556;2022-11-15T09:53:36;11.80;99.90
52743;DHT22;55583;53.012;6.556;2022-11-15T09:56:26;12.70;99.90
52743;DHT22;55583;53.012;6.556;2022-11-15T09:59:04;11.90;99.90
52743;DHT22;55583;53.012;6.556;2022-11-15T10:04:27;11.90;99.90
52743;DHT22;55583;53.012;6.556;2022-11-15T10:07:21;12.00;99.90
52743;DHT22;55583;53.012;6.556;2022-11-15T10:09:54;12.10;99.90
52743;DHT22;55583;53.012;6.556;2022-11-15T10:12:22;12.10;99.90
52743;DHT22;55583;53.012;6.556;2022-11-15T10:14:53;12.10;99.90
52743;DHT22;55583;53.012;6.556;2022-11-15T10:18:12;12.70;99.90
52743;DHT22;55583;53.012;6.556;2022-11-15T10:20:52;12.20;99.90
52743;DHT22;55583;53.012;6.556;2022-11-15T10:23:23;12.20;99.90
52743;DHT22;55583;53.012;6.556;2022-11-15T10:25:52;12.20;99.90
52743;DHT22;55583;53.012;6.556;2022-11-15T10:28:30;12.70;99.90
52743;DHT22;55583;53.012;6.556;2022-11-15T10:31:00;12.10;99.90
52743;DHT22;55583;53.012;6.556;2022-11-15T10:41:14;12.00;99.90
52743;DHT22;55583;53.012;6.556;2022-11-15T10:43:41;12.20;99.90
52743;DHT22;55583;53.012;6.556;2022-11-15T10:46:21;12.20;99.90
52743;DHT22;55583;53.012;6.556;2022-11-15T10:48:47;12.80;99.90
52743;DHT22;55583;53.012;6.556;2022-11-15T10:51:27;11.90;99.90
52743;DHT22;55583;53.012;6.556;2022-11-15T10:53:58;12.00;99.90
52743;DHT22;55583;53.012;6.556;2022-11-15T10:56:26;12.50;99.90
52743;DHT22;55583;53.012;6.556;2022-11-15T10:58:56;12.30;99.90
52743;DHT22;55583;53.012;6.556;2022-11-15T11:01:27;13.00;99.90
52743;DHT22;55583;53.012;6.556;2022-11-15T11:04:07;12.50;99.90
52743;DHT22;55583;53.012;6.556;2022-11-15T11:09:33;13.40;99.90
52743;DHT22;55583;53.012;6.556;2022-11-15T11:12:00;13.10;99.90
52743;DHT22;55583;53.012;6.556;2022-11-15T11:14:30;13.30;99.90
52743;DHT22;55583;53.012;6.556;2022-11-15T11:17:04;13.40;99.90
52743;DHT22;55583;53.012;6.556;2022-11-15T11:30:24;13.70;99.90
52743;DHT22;55583;53.012;6.556;2022-11-15T11:35:50;13.90;99.90
52743;DHT22;55583;53.012;6.556;2022-11-15T11:38:33;14.30;99.90
52743;DHT22;55583;53.012;6.556;2022-11-15T11:44:28;14.50;99.90
52743;DHT22;55583;53.012;6.556;2022-11-15T11:47:16;14.40;99.90
52743;DHT22;55583;53.012;6.556;2022-11-15T11:49:50;14.40;99.90
52743;DHT22;55583;53.012;6.556;2022-11-15T11:52:31;14.30;99.90
52743;DHT22;55583;53.012;6.556;2022-11-15T11:55:32;14.20;99.90
52743;DHT22;55583;53.012;6.556;2022-11-15T11:58:18;13.90;99.90
52743;DHT22;55583;53.012;6.556;2022-11-15T12:01:15;14.10;99.90
52743;DHT22;55583;53.012;6.556;2022-11-15T12:06:49;13.60;99.90
52743;DHT22;55583;53.012;6.556;2022-11-15T12:12:15;13.70;99.90
52743;DHT22;55583;53.012;6.556;2022-11-15T12:14:58;13.60;99.90
52743;DHT22;55583;53.012;6.556;2022-11-15T12:17:26;13.60;99.90
52743;DHT22;55583;53.012;6.556;2022-11-15T12:19:58;13.60;99.90
52743;DHT22;55583;53.012;6.556;2022-11-15T12:22:40;13.90;99.90
52743;DHT22;55583;53.012;6.556;2022-11-15T12:27:46;13.50;99.90
52743;DHT22;55583;53.012;6.556;2022-11-15T12:30:19;13.50;99.90
52743;DHT22;55583;53.012;6.556;2022-11-15T12:32:50;13.50;99.90
52743;DHT22;55583;53.012;6.556;2022-11-15T12:35:38;13.50;99.90
52743;DHT22;55583;53.012;6.556;2022-11-15T12:38:08;13.50;99.90
52743;DHT22;55583;53.012;6.556;2022-11-15T12:40:38;13.60;99.90
52743;DHT22;55583;53.012;6.556;2022-11-15T12:43:40;13.60;99.90
52743;DHT22;55583;53.012;6.556;2022-11-15T12:46:12;13.60;99.90
52743;DHT22;55583;53.012;6.556;2022-11-15T12:51:04;13.60;99.90
52743;DHT22;55583;53.012;6.556;2022-11-15T12:53:31;14.20;99.90
52743;DHT22;55583;53.012;6.556;2022-11-15T12:58:47;13.90;99.90
52743;DHT22;55583;53.012;6.556;2022-11-15T13:12:11;13.70;99.90
52743;DHT22;55583;53.012;6.556;2022-11-15T13:14:58;13.80;99.90
52743;DHT22;55583;53.012;6.556;2022-11-15T13:17:33;13.80;99.90
52743;DHT22;55583;53.012;6.556;2022-11-15T13:22:44;13.80;99.90
52743;DHT22;55583;53.012;6.556;2022-11-15T13:30:40;13.50;99.90
52743;DHT22;55583;53.012;6.556;2022-11-15T13:33:34;13.50;99.90
52743;DHT22;55583;53.012;6.556;2022-11-15T13:36:07;13.50;99.90
52743;DHT22;55583;53.012;6.556;2022-11-15T13:38:38;13.50;99.90
52743;DHT22;55583;53.012;6.556;2022-11-15T13:43:42;13.50;99.90
52743;DHT22;55583;53.012;6.556;2022-11-15T13:48:44;13.30;99.90
52743;DHT22;55583;53.012;6.556;2022-11-15T13:51:40;14.20;99.90
52743;DHT22;55583;53.012;6.556;2022-11-15T13:56:54;13.10;99.90
52743;DHT22;55583;53.012;6.556;2022-11-15T13:59:36;13.60;99.90
52743;DHT22;55583;53.012;6.556;2022-11-15T14:02:13;13.00;99.90
52743;DHT22;55583;53.012;6.556;2022-11-15T14:04:50;12.90;99.90
52743;DHT22;55583;53.012;6.556;2022-11-15T14:07:21;12.90;99.90
52743;DHT22;55583;53.012;6.556;2022-11-15T14:09:47;12.80;99.90
52743;DHT22;55583;53.012;6.556;2022-11-15T14:12:32;12.80;99.90
52743;DHT22;55583;53.012;6.556;2022-11-15T14:15:32;12.70;99.90
52743;DHT22;55583;53.012;6.556;2022-11-15T14:17:58;12.70;99.90
52743;DHT22;55583;53.012;6.556;2022-11-15T14:20:33;12.60;99.90
52743;DHT22;55583;53.012;6.556;2022-11-15T14:23:23;12.50;99.90
52743;DHT22;55583;53.012;6.556;2022-11-15T14:25:57;12.50;99.90
52743;DHT22;55583;53.012;6.556;2022-11-15T14:30:49;12.30;99.90
52743;DHT22;55583;53.012;6.556;2022-11-15T14:33:34;12.30;99.90
52743;DHT22;55583;53.012;6.556;2022-11-15T14:36:17;12.20;99.90
52743;DHT22;55583;53.012;6.556;2022-11-15T14:38:43;12.20;99.90
52743;DHT22;55583;53.012;6.556;2022-11-15T14:41:19;12.30;99.90
52743;DHT22;55583;53.012;6.556;2022-11-15T14:43:45;12.10;99.90
52743;DHT22;55583;53.012;6.556;2022-11-15T14:46:11;12.80;99.90
52743;DHT22;55583;53.012;6.556;2022-11-15T14:48:36;11.90;99.90
52743;DHT22;55583;53.012;6.556;2022-11-15T14:51:02;11.80;99.90
52743;DHT22;55583;53.012;6.556;2022-11-15T14:53:28;11.80;99.90
52743;DHT22;55583;53.012;6.556;2022-11-15T14:55:53;12.50;99.90
52743;DHT22;55583;53.012;6.556;2022-11-15T14:58:19;11.70;99.90
52743;DHT22;55583;53.012;6.556;2022-11-15T15:00:45;11.60;99.90
52743;DHT22;55583;53.012;6.556;2022-11-15T15:03:10;11.60;99.90
52743;DHT22;55583;53.012;6.556;2022-11-15T15:05:41;11.50;99.90
52743;DHT22;55583;53.012;6.556;2022-11-15T15:08:08;12.20;99.90
52743;DHT22;55583;53.012;6.556;2022-11-15T15:10:37;11.40;99.90
52743;DHT22;55583;53.012;6.556;2022-11-15T15:13:04;11.30;99.90
52743;DHT22;55583;53.012;6.556;2022-11-15T15:15:36;12.00;99.90
52743;DHT22;55583;53.012;6.556;2022-11-15T15:18:02;11.20;99.90
52743;DHT22;55583;53.012;6.556;2022-11-15T15:20:29;11.20;99.90
52743;DHT22;55583;53.012;6.556;2022-11-15T15:22:55;11.50;99.90
52743;DHT22;55583;53.012;6.556;2022-11-15T15:25:23;11.40;99.90
52743;DHT22;55583;53.012;6.556;2022-11-15T15:27:52;11.00;99.90
52743;DHT22;55583;53.012;6.556;2022-11-15T15:30:19;11.00;99.90
52743;DHT22;55583;53.012;6.556;2022-11-15T15:32:45;11.00;99.90
52743;DHT22;55583;53.012;6.556;2022-11-15T15:35:12;10.90;99.90
52743;DHT22;55583;53.012;6.556;2022-11-15T15:37:38;10.90;99.90
52743;DHT22;55583;53.012;6.556;2022-11-15T15:40:14;11.70;99.90
52743;DHT22;55583;53.012;6.556;2022-11-15T15:42:40;10.90;99.90
52743;DHT22;55583;53.012;6.556;2022-11-15T15:45:07;11.00;99.90
52743;DHT22;55583;53.012;6.556;2022-11-15T15:47:33;11.00;99.90
52743;DHT22;55583;53.012;6.556;2022-11-15T15:49:59;11.50;99.90
52743;DHT22;55583;53.012;6.556;2022-11-15T15:52:24;12.20;99.90
52743;DHT22;55583;53.012;6.556;2022-11-15T15:54:50;11.00;99.90
52743;DHT22;55583;53.012;6.556;2022-11-15T15:57:16;11.00;99.90
52743;DHT22;55583;53.012;6.556;2022-11-15T15:59:42;10.90;99.90
52743;DHT22;55583;53.012;6.556;2022-11-15T16:02:14;10.90;99.90
52743;DHT22;55583;53.012;6.556;2022-11-15T16:04:40;11.30;99.90
52743;DHT22;55583;53.012;6.556;2022-11-15T16:07:05;10.90;99.90
52743;DHT22;55583;53.012;6.556;2022-11-15T16:09:33;10.90;99.90
52743;DHT22;55583;53.012;6.556;2022-11-15T16:12:20;11.20;99.90
52743;DHT22;55583;53.012;6.556;2022-11-15T16:14:46;11.90;99.90
52743;DHT22;55583;53.012;6.556;2022-11-15T16:17:18;10.70;99.90
52743;DHT22;55583;53.012;6.556;2022-11-15T16:19:45;10.70;99.90
52743;DHT22;55583;53.012;6.556;2022-11-15T16:22:10;10.70;99.90
52743;DHT22;55583;53.012;6.556;2022-11-15T16:24:36;10.60;99.90
52743;DHT22;55583;53.012;6.556;2022-11-15T16:27:02;10.50;99.90
52743;DHT22;55583;53.012;6.556;2022-11-15T16:29:27;11.10;99.90
52743;DHT22;55583;53.012;6.556;2022-11-15T16:31:53;10.50;99.90
52743;DHT22;55583;53.012;6.556;2022-11-15T16:34:22;10.50;99.90
52743;DHT22;55583;53.012;6.556;2022-11-15T16:36:48;10.70;99.90
52743;DHT22;55583;53.012;6.556;2022-11-15T16:39:14;10.50;99.90
52743;DHT22;55583;53.012;6.556;2022-11-15T16:41:42;10.50;99.90
52743;DHT22;55583;53.012;6.556;2022-11-15T16:44:12;10.50;99.90
52743;DHT22;55583;53.012;6.556;2022-11-15T16:46:41;10.60;99.90
52743;DHT22;55583;53.012;6.556;2022-11-15T16:49:12;10.50;99.90
52743;DHT22;55583;53.012;6.556;2022-11-15T16:51:39;10.60;99.90
52743;DHT22;55583;53.012;6.556;2022-11-15T16:54:06;10.60;99.90
52743;DHT22;55583;53.012;6.556;2022-11-15T16:56:32;11.40;99.90
52743;DHT22;55583;53.012;6.556;2022-11-15T16:58:59;10.60;99.90
52743;DHT22;55583;53.012;6.556;2022-11-15T17:01:27;11.70;99.90
52743;DHT22;55583;53.012;6.556;2022-11-15T17:03:54;11.20;99.90
52743;DHT22;55583;53.012;6.556;2022-11-15T17:06:24;10.70;99.90
52743;DHT22;55583;53.012;6.556;2022-11-15T17:08:50;10.70;99.90
52743;DHT22;55583;53.012;6.556;2022-11-15T17:11:20;11.10;99.90
52743;DHT22;55583;53.012;6.556;2022-11-15T17:13:46;10.70;99.90
52743;DHT22;55583;53.012;6.556;2022-11-15T17:16:15;12.00;99.90
52743;DHT22;55583;53.012;6.556;2022-11-15T17:18:41;10.80;99.90
52743;DHT22;55583;53.012;6.556;2022-11-15T17:21:15;10.90;99.90
52743;DHT22;55583;53.012;6.556;2022-11-15T17:23:41;10.80;99.90
52743;DHT22;55583;53.012;6.556;2022-11-15T17:26:09;10.90;99.90
52743;DHT22;55583;53.012;6.556;2022-11-15T17:28:36;10.90;99.90
52743;DHT22;55583;53.012;6.556;2022-11-15T17:31:08;10.90;99.90
52743;DHT22;55583;53.012;6.556;2022-11-15T17:33:35;10.90;99.90
52743;DHT22;55583;53.012;6.556;2022-11-15T17:36:03;10.90;99.90
52743;DHT22;55583;53.012;6.556;2022-11-15T17:38:29;10.90;99.90
52743;DHT22;55583;53.012;6.556;2022-11-15T17:41:03;10.90;99.90
52743;DHT22;55583;53.012;6.556;2022-11-15T17:43:31;10.90;99.90
52743;DHT22;55583;53.012;6.556;2022-11-15T17:45:57;10.90;99.90
52743;DHT22;55583;53.012;6.556;2022-11-15T17:48:23;11.50;99.90
52743;DHT22;55583;53.012;6.556;2022-11-15T17:51:00;10.90;99.90
52743;DHT22;55583;53.012;6.556;2022-11-15T17:53:30;11.40;99.90